createdAt,value
2019-03-12T15:04:15.145Z,989.95
2019-03-12T15:05:13.959Z,989.99
2019-03-12T15:06:13.911Z,989.89
2019-03-12T15:07:13.865Z,989.89
2019-03-12T15:08:13.811Z,989.84
2019-03-12T15:09:13.763Z,989.83
2019-03-12T15:10:13.723Z,989.77
2019-03-12T15:11:13.654Z,989.76
2019-03-12T15:12:13.590Z,989.76
2019-03-12T15:13:04.200Z,989.66
2019-03-12T15:14:04.167Z,989.73
2019-03-12T15:15:04.139Z,989.68
2019-03-12T15:16:04.077Z,989.54
2019-03-12T15:16:36.215Z,989.47
2019-03-12T15:17:36.182Z,989.47
2019-03-12T15:18:36.145Z,989.43
2019-03-12T15:19:36.113Z,989.43
2019-03-12T15:20:36.096Z,989.35
2019-03-12T15:21:36.039Z,989.41
2019-03-12T15:22:35.997Z,989.36
2019-03-12T15:23:35.955Z,989.28
2019-03-12T15:24:36.316Z,989.25
2019-03-12T15:25:35.867Z,989.22
2019-03-12T15:26:36.430Z,989.26
2019-03-12T15:27:36.372Z,989.27
2019-03-12T15:28:36.333Z,989.12
2019-03-12T15:29:36.294Z,989.16
2019-03-12T15:30:36.246Z,989.12
2019-03-12T15:31:36.239Z,989.08
2019-03-12T15:32:36.172Z,989.06
2019-03-12T15:33:36.118Z,989.02
2019-03-12T15:34:36.088Z,988.98
2019-03-12T15:35:36.051Z,988.91
2019-03-12T15:36:36.005Z,989.00
2019-03-12T15:37:35.971Z,988.82
2019-03-12T15:38:35.902Z,988.83
2019-03-12T15:39:35.851Z,988.92
2019-03-12T15:40:35.825Z,988.80
2019-03-12T15:41:35.779Z,988.76
2019-03-12T15:42:35.719Z,988.81
2019-03-12T15:43:35.689Z,988.67
2019-03-12T15:44:35.640Z,988.61
2019-03-12T15:45:25.930Z,988.72
2019-03-12T15:46:25.971Z,988.63
2019-03-12T15:47:25.975Z,988.68
2019-03-12T15:48:26.061Z,988.54
2019-03-12T15:49:26.001Z,988.54
2019-03-12T15:50:26.016Z,988.59
2019-03-12T15:51:26.191Z,988.39
2019-03-12T15:52:26.074Z,988.55
2019-03-12T15:53:26.103Z,988.40
2019-03-12T15:54:26.096Z,988.37
2019-03-12T15:55:26.121Z,988.25
2019-03-12T15:56:26.126Z,988.29
2019-03-12T15:57:26.172Z,988.24
2019-03-12T15:58:26.161Z,988.24
2019-03-12T15:59:26.191Z,988.11
2019-03-12T16:00:26.174Z,988.08
2019-03-12T16:01:26.173Z,988.09
2019-03-12T16:02:26.231Z,988.11
2019-03-12T16:03:26.263Z,987.97
2019-03-12T16:04:26.193Z,987.87
2019-03-12T16:05:26.203Z,987.97
2019-03-12T16:06:26.574Z,987.79
2019-03-12T16:07:26.215Z,987.77
2019-03-12T16:08:26.259Z,987.82
2019-03-12T16:09:26.243Z,987.81
2019-03-12T16:10:26.241Z,987.77
2019-03-12T16:11:26.251Z,987.76
2019-03-12T16:12:26.264Z,987.68
2019-03-12T16:13:26.272Z,987.67
2019-03-12T16:14:26.299Z,987.69
2019-03-12T16:15:26.313Z,987.61
2019-03-12T16:16:26.322Z,987.56
2019-03-12T16:17:29.561Z,987.45
2019-03-12T16:18:26.331Z,987.54
2019-03-12T16:19:26.356Z,987.48
2019-03-12T16:20:26.353Z,987.45
2019-03-12T16:21:26.363Z,987.49
2019-03-12T16:22:26.388Z,987.38
2019-03-12T16:23:26.383Z,987.39
2019-03-12T16:24:14.282Z,987.38
2019-03-12T16:25:14.254Z,987.34
2019-03-12T16:26:14.216Z,987.41
2019-03-12T16:27:14.187Z,987.45
2019-03-12T16:28:14.163Z,987.24
2019-03-12T16:29:14.142Z,987.29
2019-03-12T16:30:14.113Z,987.22
2019-03-12T16:31:14.075Z,987.23
2019-03-12T16:32:14.044Z,987.11
2019-03-12T16:33:31.431Z,987.10
2019-03-12T16:34:31.407Z,987.06
2019-03-12T16:37:01.914Z,986.94
2019-03-12T16:41:44.815Z,986.86
2019-03-12T16:42:44.795Z,986.86
2019-03-12T16:43:44.783Z,986.82
2019-03-12T16:44:44.768Z,986.94
2019-03-12T16:45:44.777Z,986.79
2019-03-12T16:46:44.758Z,986.78
2019-03-12T16:47:44.737Z,986.64
2019-03-12T16:48:44.722Z,986.65
2019-03-12T16:49:44.714Z,986.59
2019-03-12T16:50:44.712Z,986.58
2019-03-12T16:51:44.679Z,986.40
2019-03-12T16:52:44.665Z,986.38
2019-03-12T16:53:44.651Z,986.38
2019-03-12T16:54:44.629Z,986.33
2019-03-12T16:55:44.624Z,986.22
2019-03-12T16:56:45.791Z,986.29
2019-03-12T16:57:44.577Z,986.37
2019-03-12T16:58:44.553Z,986.45
2019-03-12T17:00:08.039Z,986.44
2019-03-12T17:00:44.971Z,986.35
2019-03-12T17:01:44.970Z,986.39
2019-03-12T17:02:44.935Z,986.40
2019-03-12T17:03:44.914Z,986.45
2019-03-12T17:04:44.892Z,986.42
2019-03-12T17:05:44.866Z,986.40
2019-03-12T17:06:44.858Z,986.38
2019-03-12T17:07:44.812Z,986.42
2019-03-12T17:08:44.812Z,986.30
2019-03-12T17:09:44.797Z,986.40
2019-03-12T17:10:54.779Z,986.38
2019-03-12T17:11:45.709Z,986.31
2019-03-12T17:12:44.692Z,986.28
2019-03-12T17:13:44.674Z,986.39
2019-03-12T17:14:44.667Z,986.41
2019-03-12T17:15:44.659Z,986.46
2019-03-12T17:16:44.613Z,986.39
2019-03-12T17:17:44.582Z,986.38
2019-03-12T17:18:44.551Z,986.42
2019-03-12T17:19:44.526Z,986.40
2019-03-12T17:20:44.503Z,986.36
2019-03-12T17:21:44.477Z,986.39
2019-03-12T17:42:55.539Z,985.50
2019-03-12T17:43:57.857Z,985.36
2019-03-12T17:44:55.581Z,985.36
2019-03-12T17:45:55.556Z,985.31
2019-03-12T17:46:55.516Z,985.37
2019-03-12T17:47:55.493Z,985.41
2019-03-12T17:48:55.458Z,985.47
2019-03-12T17:49:55.427Z,985.45
2019-03-12T17:50:55.411Z,985.32
2019-03-12T17:51:55.365Z,985.39
2019-03-12T17:52:55.332Z,985.34
2019-03-12T17:53:55.292Z,985.28
2019-03-12T17:54:55.264Z,985.31
2019-03-12T17:55:55.211Z,985.22
2019-03-12T17:56:55.198Z,985.38
2019-03-12T17:57:55.154Z,985.17
2019-03-12T17:58:55.124Z,985.21
2019-03-12T17:59:55.107Z,985.20
2019-03-12T18:00:55.059Z,985.25
2019-03-12T18:01:55.019Z,985.18
2019-03-12T18:02:54.995Z,985.16
2019-03-12T18:03:54.938Z,985.08
2019-03-12T18:04:54.927Z,985.13
2019-03-12T18:05:54.858Z,984.98
2019-03-12T18:06:54.816Z,985.05
2019-03-12T18:07:54.794Z,985.03
2019-03-12T18:08:54.730Z,984.97
2019-03-12T18:09:54.694Z,984.91
2019-03-12T18:10:54.649Z,984.87
2019-03-12T18:11:54.606Z,984.76
2019-03-12T18:12:54.565Z,984.76
2019-03-12T18:13:54.536Z,984.79
2019-03-12T18:14:54.485Z,984.75
2019-03-12T18:15:54.463Z,984.72
2019-03-12T18:16:54.406Z,984.59
2019-03-12T18:17:54.368Z,984.59
2019-03-12T18:18:54.336Z,984.54
2019-03-12T18:19:54.308Z,984.54
2019-03-12T18:20:54.261Z,984.51
2019-03-12T18:21:54.248Z,984.52
2019-03-12T18:22:54.191Z,984.53
2019-03-12T18:23:54.161Z,984.49
2019-03-12T18:24:54.113Z,984.48
2019-03-12T18:25:54.069Z,984.58
2019-03-12T18:26:54.025Z,984.58
2019-03-12T18:27:53.997Z,984.42
2019-03-12T18:28:53.946Z,984.44
2019-03-12T18:29:53.928Z,984.35
2019-03-12T18:30:53.885Z,984.26
2019-03-12T18:31:53.835Z,984.18
2019-03-12T18:32:53.812Z,984.16
2019-03-12T18:33:53.755Z,984.10
2019-03-12T18:34:53.715Z,984.17
2019-03-12T18:35:53.667Z,984.20
2019-03-12T18:36:53.652Z,984.18
2019-03-12T18:37:53.591Z,984.30
2019-03-12T18:38:53.551Z,984.16
2019-03-12T18:39:53.511Z,984.07
2019-03-12T18:40:53.472Z,984.13
2019-03-12T18:41:55.842Z,984.12
2019-03-12T18:42:53.396Z,984.04
2019-03-12T18:43:53.359Z,983.98
2019-03-12T18:44:53.322Z,983.97
2019-03-12T18:45:53.277Z,983.99
2019-03-12T18:46:53.251Z,983.90
2019-03-12T18:47:53.197Z,983.85
2019-03-12T18:48:53.162Z,983.93
2019-03-12T18:49:53.128Z,983.82
2019-03-12T18:50:53.094Z,983.89
2019-03-12T18:51:53.076Z,983.80
2019-03-12T18:52:53.018Z,983.78
2019-03-12T18:53:53.003Z,983.73
2019-03-12T18:54:52.956Z,983.78
2019-03-12T18:55:52.926Z,983.73
2019-03-12T18:56:52.907Z,983.66
2019-03-12T18:57:52.862Z,983.60
2019-03-12T18:58:52.807Z,983.63
2019-03-12T18:59:52.786Z,983.55
2019-03-12T19:00:52.742Z,983.48
2019-03-12T19:01:52.717Z,983.46
2019-03-12T19:02:52.668Z,983.48
2019-03-12T19:03:52.629Z,983.42
2019-03-12T19:04:52.589Z,983.49
2019-03-12T19:05:52.555Z,983.45
2019-03-12T19:06:52.508Z,983.44
2019-03-12T19:07:52.485Z,983.45
2019-03-12T19:08:52.437Z,983.58
2019-03-12T19:09:52.396Z,983.46
2019-03-12T19:10:52.357Z,983.42
2019-03-12T19:11:52.319Z,983.41
2019-03-12T19:12:52.295Z,983.45
2019-03-12T19:13:52.240Z,983.46
2019-03-12T19:14:52.213Z,983.41
2019-03-12T19:15:52.176Z,983.46
2019-03-12T19:16:52.137Z,983.38
2019-03-12T19:17:52.116Z,983.33
2019-03-12T19:18:52.075Z,983.43
2019-03-12T19:19:52.042Z,983.32
2019-03-12T19:20:52.015Z,983.36
2019-03-12T19:21:51.962Z,983.53
2019-03-12T19:22:51.994Z,983.52
2019-03-12T19:23:58.108Z,983.50
2019-03-12T19:24:51.895Z,983.68
2019-03-12T19:25:52.584Z,983.56
2019-03-12T19:26:51.898Z,983.62
2019-03-12T19:28:00.013Z,983.59
2019-03-12T19:28:52.986Z,983.56
2019-03-12T19:29:51.819Z,983.55
2019-03-12T19:30:51.691Z,983.52
2019-03-12T19:31:51.652Z,983.48
2019-03-12T19:32:51.627Z,983.42
2019-03-12T19:33:51.612Z,983.60
2019-03-12T19:34:51.560Z,983.54
2019-03-12T19:35:51.529Z,983.47
2019-03-12T19:36:51.493Z,983.56
2019-03-12T19:37:51.461Z,983.49
2019-03-12T19:38:51.429Z,983.40
2019-03-12T19:39:51.407Z,983.30
2019-03-12T19:40:51.350Z,983.31
2019-03-12T19:41:51.318Z,983.51
2019-03-12T19:42:51.278Z,983.47
2019-03-12T19:43:51.253Z,983.49
2019-03-12T19:44:51.222Z,983.31
2019-03-12T19:45:51.170Z,983.37
2019-03-12T19:46:51.135Z,983.53
2019-03-12T19:47:51.106Z,983.40
2019-03-12T19:48:51.066Z,983.34
2019-03-12T19:49:51.052Z,983.43
2019-03-12T19:50:50.997Z,983.27
2019-03-12T19:51:50.965Z,983.19
2019-03-12T19:52:50.939Z,983.15
2019-03-12T19:53:50.908Z,983.16
2019-03-12T19:54:50.889Z,983.18
2019-03-12T19:55:50.859Z,983.18
2019-03-12T19:56:50.816Z,983.26
2019-03-12T19:57:50.777Z,983.12
2019-03-12T19:58:50.748Z,983.08
2019-03-12T19:59:50.717Z,983.08
2019-03-12T20:00:50.667Z,983.05
2019-03-12T20:01:50.652Z,983.07
2019-03-12T20:02:50.601Z,983.05
2019-03-12T20:03:50.564Z,983.13
2019-03-12T20:04:50.531Z,983.07
2019-03-12T20:05:50.505Z,983.03
2019-03-12T20:06:50.447Z,982.96
2019-03-12T20:07:50.411Z,982.98
2019-03-12T20:08:50.367Z,982.95
2019-03-12T20:09:50.326Z,982.97
2019-03-12T20:10:50.309Z,982.97
2019-03-12T20:11:50.256Z,983.06
2019-03-12T20:12:50.214Z,982.95
2019-03-12T20:13:50.166Z,982.94
2019-03-12T20:14:50.119Z,982.95
2019-03-12T20:15:50.075Z,982.93
2019-03-12T20:16:50.057Z,982.92
2019-03-12T20:17:50.010Z,982.96
2019-03-12T20:18:49.950Z,982.96
2019-03-12T20:19:49.906Z,982.99
2019-03-12T20:20:49.852Z,982.90
2019-03-12T20:21:49.804Z,982.99
2019-03-12T20:22:49.774Z,982.95
2019-03-12T20:23:49.711Z,982.93
2019-03-12T20:24:49.667Z,982.94
2019-03-12T20:25:49.615Z,982.87
2019-03-12T20:26:49.577Z,982.85
2019-03-12T20:27:49.514Z,982.85
2019-03-12T20:28:49.473Z,982.81
2019-03-12T20:29:49.422Z,982.84
2019-03-12T20:30:49.368Z,982.83
2019-03-12T20:31:49.338Z,982.85
2019-03-12T20:32:49.266Z,982.78
2019-03-12T20:33:49.218Z,982.84
2019-03-12T20:34:49.175Z,982.87
2019-03-12T20:35:49.126Z,982.89
2019-03-12T20:36:49.089Z,982.79
2019-03-12T20:37:49.057Z,982.81
2019-03-12T20:38:49.000Z,982.82
2019-03-12T20:39:48.957Z,982.76
2019-03-12T20:40:48.907Z,982.80
2019-03-12T20:41:48.889Z,982.73
2019-03-12T20:42:48.822Z,982.72
2019-03-12T20:43:48.778Z,982.76
2019-03-12T20:44:48.729Z,982.74
2019-03-12T20:45:48.689Z,982.64
2019-03-12T20:46:48.646Z,982.68
2019-03-12T20:47:48.612Z,982.70
2019-03-12T20:48:48.563Z,982.76
2019-03-12T20:49:48.512Z,982.67
2019-03-12T20:50:48.467Z,982.73
2019-03-12T20:51:48.421Z,982.62
2019-03-12T20:52:48.387Z,982.64
2019-03-12T20:53:48.353Z,982.71
2019-03-12T20:54:48.291Z,982.72
2019-03-12T20:55:48.243Z,982.82
2019-03-12T20:56:51.450Z,982.72
2019-03-12T20:57:48.150Z,982.72
2019-03-12T20:58:48.121Z,982.69
2019-03-12T20:59:48.069Z,982.77
2019-03-12T21:00:48.016Z,982.71
2019-03-12T21:01:47.963Z,982.81
2019-03-12T21:02:47.917Z,982.86
2019-03-12T21:03:47.876Z,982.81
2019-03-12T21:04:47.846Z,982.78
2019-03-12T21:05:47.790Z,982.81
2019-03-12T21:06:47.741Z,982.89
2019-03-12T21:07:47.698Z,982.86
2019-03-12T21:08:47.651Z,982.95
2019-03-12T21:09:47.600Z,982.90
2019-03-12T21:10:47.563Z,982.90
2019-03-12T21:11:47.503Z,982.96
2019-03-12T21:12:47.447Z,982.98
2019-03-12T21:13:47.401Z,983.04
2019-03-12T21:14:47.372Z,982.99
2019-03-12T21:15:47.312Z,983.17
2019-03-12T21:16:47.258Z,983.08
2019-03-12T21:17:47.216Z,983.09
2019-03-12T21:18:47.169Z,983.26
2019-03-12T21:19:47.140Z,983.25
2019-03-12T21:20:47.083Z,983.21
2019-03-12T21:21:47.029Z,983.46
2019-03-12T21:22:46.981Z,983.45
2019-03-12T21:23:46.941Z,983.43
2019-03-12T21:24:46.883Z,983.66
2019-03-12T21:25:48.245Z,983.69
2019-03-12T21:26:46.783Z,983.80
2019-03-12T21:27:46.749Z,984.07
2019-03-12T21:28:46.687Z,984.29
2019-03-12T21:29:46.640Z,984.39
2019-03-12T21:30:46.593Z,984.42
2019-03-12T21:31:46.558Z,984.53
2019-03-12T21:32:46.500Z,984.66
2019-03-12T21:33:46.445Z,984.71
2019-03-12T21:34:46.398Z,984.62
2019-03-12T21:35:46.350Z,984.68
2019-03-12T21:36:46.304Z,984.86
2019-03-12T21:37:46.255Z,984.78
2019-03-12T21:38:46.195Z,984.84
2019-03-12T21:39:55.202Z,984.84
2019-03-12T21:40:47.093Z,984.99
2019-03-12T21:41:46.056Z,984.92
2019-03-12T21:42:45.993Z,984.96
2019-03-12T21:43:45.947Z,985.07
2019-03-12T21:44:45.889Z,985.18
2019-03-12T21:45:45.840Z,985.35
2019-03-12T21:46:45.814Z,985.15
2019-03-12T21:47:45.752Z,985.30
2019-03-12T21:48:45.694Z,985.33
2019-03-12T21:49:45.650Z,985.15
2019-03-12T21:50:45.596Z,985.35
2019-03-12T21:51:45.547Z,985.38
2019-03-12T21:52:45.518Z,985.55
2019-03-12T21:53:45.454Z,985.58
2019-03-12T21:54:45.409Z,985.52
2019-03-12T21:55:45.365Z,985.47
2019-03-12T21:56:45.327Z,985.49
2019-03-12T21:57:45.274Z,985.53
2019-03-12T21:58:45.211Z,985.54
2019-03-12T21:59:45.162Z,985.69
2019-03-12T22:00:45.123Z,985.65
2019-03-12T22:01:45.074Z,985.62
2019-03-12T22:02:45.044Z,985.66
2019-03-12T22:03:44.978Z,985.66
2019-03-12T22:04:44.934Z,985.77
2019-03-12T22:05:44.895Z,985.75
2019-03-12T22:06:44.845Z,985.78
2019-03-12T22:07:44.820Z,985.74
2019-03-12T22:08:44.757Z,985.86
2019-03-12T22:09:44.712Z,985.71
2019-03-12T22:10:44.657Z,985.81
2019-03-12T22:11:44.606Z,985.83
2019-03-12T22:12:44.582Z,985.91
2019-03-12T22:13:44.509Z,985.93
2019-03-12T22:14:44.460Z,985.98
2019-03-12T22:15:44.417Z,985.96
2019-03-12T22:16:44.364Z,986.02
2019-03-12T22:17:44.322Z,986.17
2019-03-12T22:18:44.292Z,986.12
2019-03-12T22:19:44.232Z,986.05
2019-03-12T22:20:44.181Z,986.16
2019-03-12T22:21:44.144Z,986.22
2019-03-12T22:22:44.118Z,986.22
2019-03-12T22:23:44.056Z,986.17
2019-03-12T22:24:44.018Z,986.15
2019-03-12T22:25:43.970Z,986.21
2019-03-12T22:26:43.924Z,986.24
2019-03-12T22:27:43.882Z,986.09
2019-03-12T22:28:43.846Z,986.31
2019-03-12T22:29:43.791Z,986.26
2019-03-12T22:30:43.745Z,986.27
2019-03-12T22:31:50.009Z,986.37
2019-03-12T22:32:43.667Z,986.34
2019-03-12T22:33:43.675Z,986.31
2019-03-12T22:34:43.582Z,986.36
2019-03-12T22:35:43.540Z,986.46
2019-03-12T22:36:43.499Z,986.38
2019-03-12T22:37:43.458Z,986.39
2019-03-12T22:38:43.404Z,986.37
2019-03-12T22:39:43.401Z,986.36
2019-03-12T22:40:43.318Z,986.45
2019-03-12T22:41:43.268Z,986.47
2019-03-12T22:42:43.236Z,986.51
2019-03-12T22:43:43.186Z,986.45
2019-03-12T22:44:43.185Z,986.50
2019-03-12T22:45:43.099Z,986.66
2019-03-12T22:46:43.050Z,986.45
2019-03-12T22:47:43.004Z,986.53
2019-03-12T22:48:42.999Z,986.65
2019-03-12T22:49:42.914Z,986.58
2019-03-12T22:50:42.860Z,986.57
2019-03-12T22:51:42.823Z,986.57
2019-03-12T22:52:42.780Z,986.61
2019-03-12T22:53:42.723Z,986.52
2019-03-12T22:54:42.724Z,986.63
2019-03-12T22:55:42.647Z,986.63
2019-03-12T22:56:42.602Z,986.66
2019-03-12T22:57:42.561Z,986.66
2019-03-12T22:58:42.547Z,986.66
2019-03-12T22:59:42.510Z,986.70
2019-03-12T23:00:42.425Z,986.63
2019-03-12T23:01:42.374Z,986.70
2019-03-12T23:02:42.341Z,986.63
2019-03-12T23:03:42.334Z,986.66
2019-03-12T23:04:42.247Z,986.69
2019-03-12T23:05:42.220Z,986.62
2019-03-12T23:06:42.167Z,986.66
2019-03-12T23:07:42.125Z,986.70
2019-03-12T23:08:42.079Z,986.68
2019-03-12T23:09:42.034Z,986.67
2019-03-12T23:10:42.026Z,986.71
2019-03-12T23:11:41.942Z,986.72
2019-03-12T23:12:41.896Z,986.83
2019-03-12T23:13:41.894Z,986.79
2019-03-12T23:14:41.799Z,986.83
2019-03-12T23:15:41.755Z,986.85
2019-03-12T23:16:41.707Z,986.88
2019-03-12T23:17:41.663Z,986.89
2019-03-12T23:18:41.637Z,986.86
2019-03-12T23:19:47.869Z,986.96
2019-03-12T23:20:41.628Z,986.94
2019-03-12T23:21:41.573Z,987.02
2019-03-12T23:22:41.603Z,987.01
2019-03-12T23:23:41.554Z,987.04
2019-03-12T23:24:41.509Z,987.07
2019-03-12T23:25:41.560Z,987.13
2019-03-12T23:26:41.417Z,987.09
2019-03-12T23:27:41.437Z,987.10
2019-03-12T23:28:41.383Z,987.17
2019-03-12T23:30:19.937Z,987.20
2019-03-12T23:31:20.000Z,987.18
2019-03-12T23:32:19.949Z,987.27
2019-03-12T23:33:19.930Z,987.22
2019-03-12T23:34:19.898Z,987.31
2019-03-12T23:35:19.882Z,987.34
2019-03-12T23:36:19.874Z,987.34
2019-03-12T23:37:19.881Z,987.47
2019-03-12T23:38:19.851Z,987.44
2019-03-12T23:39:19.844Z,987.47
2019-03-12T23:40:19.910Z,987.49
2019-03-12T23:41:19.825Z,987.44
2019-03-12T23:42:19.814Z,987.56
2019-03-12T23:43:19.825Z,987.53
2019-03-12T23:44:19.787Z,987.54
2019-03-12T23:45:19.779Z,987.55
2019-03-12T23:46:19.776Z,987.53
2019-03-12T23:47:19.754Z,987.60
2019-03-12T23:48:19.760Z,987.54
2019-03-12T23:49:19.734Z,987.63
2019-03-12T23:50:19.721Z,987.67
2019-03-12T23:51:19.719Z,987.62
2019-03-12T23:52:19.746Z,987.67
2019-03-12T23:53:19.792Z,987.60
2019-03-12T23:54:19.685Z,987.62
2019-03-12T23:55:19.669Z,987.61
2019-03-12T23:56:19.656Z,987.60
2019-03-12T23:57:19.646Z,987.63
2019-03-12T23:58:19.654Z,987.65
2019-03-12T23:59:19.629Z,987.60
